sensor_id;sensor_type;location;lat;lon;timestamp;P1;durP1;ratioP1;P2;durP2;ratioP2
21213;SDS011;10764;50.850;2.904;2022-09-09T00:04:05;5.95;;;5.45;;
21213;SDS011;10764;50.850;2.904;2022-09-09T00:09:40;4.05;;;3.75;;
21213;SDS011;10764;50.850;2.904;2022-09-09T00:12:24;6.47;;;5.90;;
21213;SDS011;10764;50.850;2.904;2022-09-09T00:15:05;2.58;;;2.38;;
21213;SDS011;10764;50.850;2.904;2022-09-09T00:17:43;5.67;;;4.53;;
21213;SDS011;10764;50.850;2.904;2022-09-09T00:20:31;5.43;;;4.90;;
21213;SDS011;10764;50.850;2.904;2022-09-09T00:25:56;5.25;;;4.85;;
21213;SDS011;10764;50.850;2.904;2022-09-09T00:28:39;3.55;;;2.58;;
21213;SDS011;10764;50.850;2.904;2022-09-09T00:31:13;8.13;;;7.63;;
21213;SDS011;10764;50.850;2.904;2022-09-09T00:33:42;14.02;;;13.07;;
21213;SDS011;10764;50.850;2.904;2022-09-09T00:36:14;9.18;;;8.57;;
21213;SDS011;10764;50.850;2.904;2022-09-09T00:38:48;9.38;;;8.68;;
21213;SDS011;10764;50.850;2.904;2022-09-09T00:41:20;7.55;;;6.85;;
21213;SDS011;10764;50.850;2.904;2022-09-09T00:43:56;6.25;;;5.75;;
21213;SDS011;10764;50.850;2.904;2022-09-09T00:49:15;6.40;;;5.90;;
21213;SDS011;10764;50.850;2.904;2022-09-09T00:57:00;4.68;;;4.28;;
21213;SDS011;10764;50.850;2.904;2022-09-09T00:59:48;11.23;;;10.43;;
21213;SDS011;10764;50.850;2.904;2022-09-09T01:02:25;5.03;;;4.57;;
21213;SDS011;10764;50.850;2.904;2022-09-09T01:05:07;10.55;;;9.93;;
21213;SDS011;10764;50.850;2.904;2022-09-09T01:07:40;12.63;;;11.65;;
21213;SDS011;10764;50.850;2.904;2022-09-09T01:12:59;10.38;;;9.68;;
21213;SDS011;10764;50.850;2.904;2022-09-09T01:15:30;13.63;;;12.68;;
21213;SDS011;10764;50.850;2.904;2022-09-09T01:20:38;7.25;;;6.75;;
21213;SDS011;10764;50.850;2.904;2022-09-09T01:26:21;10.80;;;10.05;;
21213;SDS011;10764;50.850;2.904;2022-09-09T01:28:55;12.32;;;11.45;;
21213;SDS011;10764;50.850;2.904;2022-09-09T01:31:34;9.07;;;8.45;;
21213;SDS011;10764;50.850;2.904;2022-09-09T01:34:11;6.65;;;5.97;;
21213;SDS011;10764;50.850;2.904;2022-09-09T01:39:17;6.85;;;6.35;;
21213;SDS011;10764;50.850;2.904;2022-09-09T01:41:47;5.80;;;5.30;;
21213;SDS011;10764;50.850;2.904;2022-09-09T01:44:16;7.28;;;6.78;;
21213;SDS011;10764;50.850;2.904;2022-09-09T01:46:45;3.50;;;1.90;;
21213;SDS011;10764;50.850;2.904;2022-09-09T01:49:17;2.42;;;2.22;;
21213;SDS011;10764;50.850;2.904;2022-09-09T01:51:46;1.93;;;1.60;;
21213;SDS011;10764;50.850;2.904;2022-09-09T01:54:25;2.33;;;1.75;;
21213;SDS011;10764;50.850;2.904;2022-09-09T02:07:41;5.60;;;5.20;;
21213;SDS011;10764;50.850;2.904;2022-09-09T02:10:30;5.53;;;5.03;;
21213;SDS011;10764;50.850;2.904;2022-09-09T02:13:13;11.75;;;10.93;;
21213;SDS011;10764;50.850;2.904;2022-09-09T02:18:35;7.07;;;6.38;;
21213;SDS011;10764;50.850;2.904;2022-09-09T02:21:08;3.85;;;3.47;;
21213;SDS011;10764;50.850;2.904;2022-09-09T02:23:37;2.30;;;1.10;;
21213;SDS011;10764;50.850;2.904;2022-09-09T02:26:11;4.57;;;3.27;;
21213;SDS011;10764;50.850;2.904;2022-09-09T02:28:48;3.47;;;3.17;;
21213;SDS011;10764;50.850;2.904;2022-09-09T02:31:18;3.28;;;1.75;;
21213;SDS011;10764;50.850;2.904;2022-09-09T02:33:53;3.70;;;2.33;;
21213;SDS011;10764;50.850;2.904;2022-09-09T02:36:24;1.85;;;0.88;;
21213;SDS011;10764;50.850;2.904;2022-09-09T02:38:54;2.17;;;1.30;;
21213;SDS011;10764;50.850;2.904;2022-09-09T02:41:27;2.70;;;0.73;;
21213;SDS011;10764;50.850;2.904;2022-09-09T02:44:08;3.60;;;3.00;;
21213;SDS011;10764;50.850;2.904;2022-09-09T02:52:21;2.70;;;1.02;;
21213;SDS011;10764;50.850;2.904;2022-09-09T02:54:57;1.42;;;1.00;;
21213;SDS011;10764;50.850;2.904;2022-09-09T02:57:29;3.55;;;1.38;;
21213;SDS011;10764;50.850;2.904;2022-09-09T02:59:59;3.30;;;2.20;;
21213;SDS011;10764;50.850;2.904;2022-09-09T03:02:31;5.05;;;2.40;;
21213;SDS011;10764;50.850;2.904;2022-09-09T03:05:03;4.33;;;2.87;;
21213;SDS011;10764;50.850;2.904;2022-09-09T03:07:32;3.92;;;1.92;;
21213;SDS011;10764;50.850;2.904;2022-09-09T03:10:00;3.40;;;1.52;;
21213;SDS011;10764;50.850;2.904;2022-09-09T03:12:27;3.63;;;2.35;;
21213;SDS011;10764;50.850;2.904;2022-09-09T03:14:53;2.47;;;1.50;;
21213;SDS011;10764;50.850;2.904;2022-09-09T03:17:21;4.50;;;2.15;;
21213;SDS011;10764;50.850;2.904;2022-09-09T03:19:52;3.10;;;1.30;;
21213;SDS011;10764;50.850;2.904;2022-09-09T03:22:21;3.35;;;2.75;;
21213;SDS011;10764;50.850;2.904;2022-09-09T03:24:48;2.13;;;1.23;;
21213;SDS011;10764;50.850;2.904;2022-09-09T03:27:15;4.43;;;2.53;;
21213;SDS011;10764;50.850;2.904;2022-09-09T03:29:43;2.45;;;1.15;;
21213;SDS011;10764;50.850;2.904;2022-09-09T03:32:14;5.00;;;3.60;;
21213;SDS011;10764;50.850;2.904;2022-09-09T03:34:43;2.88;;;1.25;;
21213;SDS011;10764;50.850;2.904;2022-09-09T03:37:13;5.10;;;3.13;;
21213;SDS011;10764;50.850;2.904;2022-09-09T03:39:40;3.22;;;1.58;;
21213;SDS011;10764;50.850;2.904;2022-09-09T03:42:08;2.80;;;2.30;;
21213;SDS011;10764;50.850;2.904;2022-09-09T03:44:36;3.97;;;1.63;;
21213;SDS011;10764;50.850;2.904;2022-09-09T03:47:03;4.45;;;2.92;;
21213;SDS011;10764;50.850;2.904;2022-09-09T03:49:32;2.70;;;1.20;;
21213;SDS011;10764;50.850;2.904;2022-09-09T03:51:59;2.55;;;1.70;;
21213;SDS011;10764;50.850;2.904;2022-09-09T03:54:28;4.15;;;2.45;;
21213;SDS011;10764;50.850;2.904;2022-09-09T03:56:55;3.72;;;2.00;;
21213;SDS011;10764;50.850;2.904;2022-09-09T03:59:22;2.92;;;1.67;;
21213;SDS011;10764;50.850;2.904;2022-09-09T04:01:49;4.55;;;1.38;;
21213;SDS011;10764;50.850;2.904;2022-09-09T04:04:17;4.50;;;2.30;;
21213;SDS011;10764;50.850;2.904;2022-09-09T04:06:46;2.95;;;1.08;;
21213;SDS011;10764;50.850;2.904;2022-09-09T04:09:14;3.22;;;1.73;;
21213;SDS011;10764;50.850;2.904;2022-09-09T04:11:41;4.65;;;2.13;;
21213;SDS011;10764;50.850;2.904;2022-09-09T04:14:08;4.22;;;2.80;;
21213;SDS011;10764;50.850;2.904;2022-09-09T04:16:35;3.45;;;1.15;;
21213;SDS011;10764;50.850;2.904;2022-09-09T04:19:06;4.00;;;3.60;;
21213;SDS011;10764;50.850;2.904;2022-09-09T04:21:34;3.15;;;0.90;;
21213;SDS011;10764;50.850;2.904;2022-09-09T04:24:01;4.93;;;3.83;;
21213;SDS011;10764;50.850;2.904;2022-09-09T04:26:28;2.75;;;1.40;;
21213;SDS011;10764;50.850;2.904;2022-09-09T04:28:55;4.13;;;3.70;;
21213;SDS011;10764;50.850;2.904;2022-09-09T04:31:23;2.80;;;1.42;;
21213;SDS011;10764;50.850;2.904;2022-09-09T04:33:53;4.50;;;2.15;;
21213;SDS011;10764;50.850;2.904;2022-09-09T04:36:20;3.17;;;1.60;;
21213;SDS011;10764;50.850;2.904;2022-09-09T04:38:50;4.75;;;3.85;;
21213;SDS011;10764;50.850;2.904;2022-09-09T04:41:18;3.28;;;1.60;;
21213;SDS011;10764;50.850;2.904;2022-09-09T04:43:48;2.58;;;1.20;;
21213;SDS011;10764;50.850;2.904;2022-09-09T04:46:16;4.32;;;2.83;;
21213;SDS011;10764;50.850;2.904;2022-09-09T04:48:48;4.22;;;2.05;;
21213;SDS011;10764;50.850;2.904;2022-09-09T04:51:16;3.30;;;2.50;;
21213;SDS011;10764;50.850;2.904;2022-09-09T04:53:45;3.53;;;1.50;;
21213;SDS011;10764;50.850;2.904;2022-09-09T04:56:16;3.75;;;1.33;;
21213;SDS011;10764;50.850;2.904;2022-09-09T04:58:48;3.40;;;1.45;;
21213;SDS011;10764;50.850;2.904;2022-09-09T05:01:18;4.28;;;1.70;;
21213;SDS011;10764;50.850;2.904;2022-09-09T05:03:50;7.07;;;2.40;;
21213;SDS011;10764;50.850;2.904;2022-09-09T05:06:20;4.03;;;1.40;;
21213;SDS011;10764;50.850;2.904;2022-09-09T05:08:52;3.00;;;1.23;;
21213;SDS011;10764;50.850;2.904;2022-09-09T05:11:27;3.00;;;1.55;;
21213;SDS011;10764;50.850;2.904;2022-09-09T05:14:34;3.97;;;1.95;;
21213;SDS011;10764;50.850;2.904;2022-09-09T05:17:04;3.80;;;2.03;;
21213;SDS011;10764;50.850;2.904;2022-09-09T05:19:33;4.20;;;2.70;;
21213;SDS011;10764;50.850;2.904;2022-09-09T05:22:00;4.55;;;2.28;;
21213;SDS011;10764;50.850;2.904;2022-09-09T05:24:35;4.03;;;2.10;;
21213;SDS011;10764;50.850;2.904;2022-09-09T05:27:04;3.22;;;2.25;;
21213;SDS011;10764;50.850;2.904;2022-09-09T05:29:32;4.28;;;1.70;;
21213;SDS011;10764;50.850;2.904;2022-09-09T05:32:01;4.35;;;1.90;;
21213;SDS011;10764;50.850;2.904;2022-09-09T05:34:28;3.92;;;1.75;;
21213;SDS011;10764;50.850;2.904;2022-09-09T05:36:55;3.88;;;1.27;;
21213;SDS011;10764;50.850;2.904;2022-09-09T05:39:23;3.40;;;1.73;;
21213;SDS011;10764;50.850;2.904;2022-09-09T05:41:50;4.03;;;1.90;;
21213;SDS011;10764;50.850;2.904;2022-09-09T05:44:17;7.53;;;1.47;;
21213;SDS011;10764;50.850;2.904;2022-09-09T05:46:45;4.30;;;2.20;;
21213;SDS011;10764;50.850;2.904;2022-09-09T05:49:13;8.30;;;2.40;;
21213;SDS011;10764;50.850;2.904;2022-09-09T05:51:43;3.22;;;1.80;;
21213;SDS011;10764;50.850;2.904;2022-09-09T05:54:13;6.25;;;2.45;;
21213;SDS011;10764;50.850;2.904;2022-09-09T05:56:45;3.53;;;2.10;;
21213;SDS011;10764;50.850;2.904;2022-09-09T05:59:17;4.63;;;2.88;;
21213;SDS011;10764;50.850;2.904;2022-09-09T06:01:44;6.47;;;2.27;;
21213;SDS011;10764;50.850;2.904;2022-09-09T06:04:19;4.07;;;2.47;;
21213;SDS011;10764;50.850;2.904;2022-09-09T06:06:48;4.50;;;2.33;;
21213;SDS011;10764;50.850;2.904;2022-09-09T06:09:17;4.28;;;2.08;;
21213;SDS011;10764;50.850;2.904;2022-09-09T06:11:44;4.13;;;1.58;;
21213;SDS011;10764;50.850;2.904;2022-09-09T06:14:13;4.10;;;2.17;;
21213;SDS011;10764;50.850;2.904;2022-09-09T06:16:42;4.67;;;3.07;;
21213;SDS011;10764;50.850;2.904;2022-09-09T06:19:16;3.15;;;1.15;;
21213;SDS011;10764;50.850;2.904;2022-09-09T06:21:43;3.60;;;2.30;;
21213;SDS011;10764;50.850;2.904;2022-09-09T06:24:11;3.63;;;1.58;;
21213;SDS011;10764;50.850;2.904;2022-09-09T06:26:40;4.57;;;2.97;;
21213;SDS011;10764;50.850;2.904;2022-09-09T06:29:09;3.78;;;1.92;;
21213;SDS011;10764;50.850;2.904;2022-09-09T06:31:38;6.07;;;2.40;;
21213;SDS011;10764;50.850;2.904;2022-09-09T06:34:11;4.65;;;1.80;;
21213;SDS011;10764;50.850;2.904;2022-09-09T06:36:42;3.77;;;1.53;;
21213;SDS011;10764;50.850;2.904;2022-09-09T06:39:12;4.60;;;3.28;;
21213;SDS011;10764;50.850;2.904;2022-09-09T06:41:41;7.63;;;3.25;;
21213;SDS011;10764;50.850;2.904;2022-09-09T06:44:23;4.43;;;2.37;;
21213;SDS011;10764;50.850;2.904;2022-09-09T06:46:55;3.92;;;2.25;;
21213;SDS011;10764;50.850;2.904;2022-09-09T06:49:24;4.57;;;2.03;;
21213;SDS011;10764;50.850;2.904;2022-09-09T06:51:51;3.17;;;1.65;;
21213;SDS011;10764;50.850;2.904;2022-09-09T06:54:20;5.88;;;3.30;;
21213;SDS011;10764;50.850;2.904;2022-09-09T06:56:50;3.08;;;1.67;;
21213;SDS011;10764;50.850;2.904;2022-09-09T06:59:21;4.95;;;2.38;;
21213;SDS011;10764;50.850;2.904;2022-09-09T07:01:49;3.75;;;1.58;;
21213;SDS011;10764;50.850;2.904;2022-09-09T07:04:21;4.22;;;2.35;;
21213;SDS011;10764;50.850;2.904;2022-09-09T07:06:48;3.90;;;2.00;;
21213;SDS011;10764;50.850;2.904;2022-09-09T07:09:20;5.43;;;3.75;;
21213;SDS011;10764;50.850;2.904;2022-09-09T07:11:50;5.63;;;3.35;;
21213;SDS011;10764;50.850;2.904;2022-09-09T07:14:20;3.05;;;1.27;;
21213;SDS011;10764;50.850;2.904;2022-09-09T07:16:54;4.22;;;2.60;;
21213;SDS011;10764;50.850;2.904;2022-09-09T07:19:25;4.63;;;2.55;;
21213;SDS011;10764;50.850;2.904;2022-09-09T07:21:54;4.85;;;2.90;;
21213;SDS011;10764;50.850;2.904;2022-09-09T07:24:23;22.92;;;9.50;;
21213;SDS011;10764;50.850;2.904;2022-09-09T07:26:50;4.15;;;2.47;;
21213;SDS011;10764;50.850;2.904;2022-09-09T07:29:18;3.00;;;2.30;;
21213;SDS011;10764;50.850;2.904;2022-09-09T07:31:48;3.77;;;2.30;;
21213;SDS011;10764;50.850;2.904;2022-09-09T07:34:20;17.48;;;7.97;;
21213;SDS011;10764;50.850;2.904;2022-09-09T07:36:47;5.05;;;3.88;;
21213;SDS011;10764;50.850;2.904;2022-09-09T07:39:16;888.80;;;811.95;;
21213;SDS011;10764;50.850;2.904;2022-09-09T07:41:50;926.70;;;847.90;;
21213;SDS011;10764;50.850;2.904;2022-09-09T07:44:22;966.38;;;884.08;;
21213;SDS011;10764;50.850;2.904;2022-09-09T07:46:57;1009.25;;;923.70;;
21213;SDS011;10764;50.850;2.904;2022-09-09T07:49:32;971.83;;;888.78;;
21213;SDS011;10764;50.850;2.904;2022-09-09T07:52:29;844.67;;;770.72;;
21213;SDS011;10764;50.850;2.904;2022-09-09T07:54:59;866.75;;;791.63;;
21213;SDS011;10764;50.850;2.904;2022-09-09T07:57:29;890.28;;;813.45;;
21213;SDS011;10764;50.850;2.904;2022-09-09T07:59:56;780.17;;;711.83;;
21213;SDS011;10764;50.850;2.904;2022-09-09T08:02:25;765.65;;;697.45;;
21213;SDS011;10764;50.850;2.904;2022-09-09T08:04:54;660.53;;;600.70;;
21213;SDS011;10764;50.850;2.904;2022-09-09T08:07:23;587.03;;;532.38;;
21213;SDS011;10764;50.850;2.904;2022-09-09T08:09:53;537.40;;;486.63;;
21213;SDS011;10764;50.850;2.904;2022-09-09T08:12:25;546.58;;;494.77;;
21213;SDS011;10764;50.850;2.904;2022-09-09T08:14:53;635.80;;;577.85;;
21213;SDS011;10764;50.850;2.904;2022-09-09T08:17:23;654.53;;;594.45;;
21213;SDS011;10764;50.850;2.904;2022-09-09T08:19:51;527.55;;;478.25;;
21213;SDS011;10764;50.850;2.904;2022-09-09T08:22:22;501.73;;;454.70;;
21213;SDS011;10764;50.850;2.904;2022-09-09T08:24:50;524.28;;;475.50;;
21213;SDS011;10764;50.850;2.904;2022-09-09T08:27:18;543.45;;;492.25;;
21213;SDS011;10764;50.850;2.904;2022-09-09T08:29:46;513.97;;;465.70;;
21213;SDS011;10764;50.850;2.904;2022-09-09T08:32:13;461.42;;;417.50;;
21213;SDS011;10764;50.850;2.904;2022-09-09T08:34:40;506.00;;;458.10;;
21213;SDS011;10764;50.850;2.904;2022-09-09T08:37:15;479.85;;;434.48;;
21213;SDS011;10764;50.850;2.904;2022-09-09T08:39:44;465.70;;;421.50;;
21213;SDS011;10764;50.850;2.904;2022-09-09T08:44:43;434.60;;;393.15;;
21213;SDS011;10764;50.850;2.904;2022-09-09T08:55:25;447.43;;;404.57;;
21213;SDS011;10764;50.850;2.904;2022-09-09T08:57:56;443.35;;;401.25;;
21213;SDS011;10764;50.850;2.904;2022-09-09T09:00:40;442.52;;;400.50;;
21213;SDS011;10764;50.850;2.904;2022-09-09T09:03:14;501.57;;;454.77;;
21213;SDS011;10764;50.850;2.904;2022-09-09T09:05:47;445.77;;;403.17;;
21213;SDS011;10764;50.850;2.904;2022-09-09T09:11:17;369.73;;;334.42;;
21213;SDS011;10764;50.850;2.904;2022-09-09T09:13:45;373.60;;;337.70;;
21213;SDS011;10764;50.850;2.904;2022-09-09T09:16:21;350.77;;;317.73;;
21213;SDS011;10764;50.850;2.904;2022-09-09T09:18:51;367.35;;;332.45;;
21213;SDS011;10764;50.850;2.904;2022-09-09T09:21:29;344.88;;;311.85;;
21213;SDS011;10764;50.850;2.904;2022-09-09T09:24:09;336.15;;;304.25;;
21213;SDS011;10764;50.850;2.904;2022-09-09T09:26:47;348.00;;;314.80;;
21213;SDS011;10764;50.850;2.904;2022-09-09T09:29:17;349.13;;;315.75;;
21213;SDS011;10764;50.850;2.904;2022-09-09T09:31:47;336.27;;;304.23;;
21213;SDS011;10764;50.850;2.904;2022-09-09T09:34:15;346.67;;;313.58;;
21213;SDS011;10764;50.850;2.904;2022-09-09T09:36:46;318.92;;;288.90;;
21213;SDS011;10764;50.850;2.904;2022-09-09T09:39:26;386.13;;;348.80;;
21213;SDS011;10764;50.850;2.904;2022-09-09T09:42:17;375.00;;;339.15;;
21213;SDS011;10764;50.850;2.904;2022-09-09T09:44:50;351.92;;;318.50;;
21213;SDS011;10764;50.850;2.904;2022-09-09T09:47:20;389.70;;;352.23;;
21213;SDS011;10764;50.850;2.904;2022-09-09T09:49:56;385.05;;;347.33;;
21213;SDS011;10764;50.850;2.904;2022-09-09T09:52:33;361.55;;;326.88;;
21213;SDS011;10764;50.850;2.904;2022-09-09T09:55:04;352.13;;;318.45;;
21213;SDS011;10764;50.850;2.904;2022-09-09T09:57:34;351.80;;;318.00;;
21213;SDS011;10764;50.850;2.904;2022-09-09T10:00:13;348.67;;;315.33;;
21213;SDS011;10764;50.850;2.904;2022-09-09T10:02:42;341.25;;;308.38;;
21213;SDS011;10764;50.850;2.904;2022-09-09T10:08:08;355.42;;;321.25;;
21213;SDS011;10764;50.850;2.904;2022-09-09T10:10:40;357.08;;;322.73;;
21213;SDS011;10764;50.850;2.904;2022-09-09T10:31:58;324.08;;;293.30;;
21213;SDS011;10764;50.850;2.904;2022-09-09T10:34:37;322.05;;;291.35;;
21213;SDS011;10764;50.850;2.904;2022-09-09T10:40:59;287.98;;;261.27;;
21213;SDS011;10764;50.850;2.904;2022-09-09T10:42:58;294.15;;;266.70;;
21213;SDS011;10764;50.850;2.904;2022-09-09T10:48:18;278.98;;;253.20;;
21213;SDS011;10764;50.850;2.904;2022-09-09T10:56:08;307.33;;;277.48;;
21213;SDS011;10764;50.850;2.904;2022-09-09T11:01:24;299.67;;;271.48;;
21213;SDS011;10764;50.850;2.904;2022-09-09T11:04:03;308.97;;;279.80;;
21213;SDS011;10764;50.850;2.904;2022-09-09T11:06:34;280.20;;;254.30;;
21213;SDS011;10764;50.850;2.904;2022-09-09T11:09:03;301.65;;;273.25;;
21213;SDS011;10764;50.850;2.904;2022-09-09T11:11:39;309.50;;;279.97;;
21213;SDS011;10764;50.850;2.904;2022-09-09T11:14:55;298.33;;;270.50;;
21213;SDS011;10764;50.850;2.904;2022-09-09T11:17:08;306.67;;;277.85;;
21213;SDS011;10764;50.850;2.904;2022-09-09T11:19:41;307.73;;;278.60;;
21213;SDS011;10764;50.850;2.904;2022-09-09T11:30:21;322.98;;;292.15;;
21213;SDS011;10764;50.850;2.904;2022-09-09T11:33:16;327.35;;;295.52;;
21213;SDS011;10764;50.850;2.904;2022-09-09T11:38:19;284.67;;;258.08;;
21213;SDS011;10764;50.850;2.904;2022-09-09T11:41:02;311.13;;;281.57;;
21213;SDS011;10764;50.850;2.904;2022-09-09T11:43:32;309.50;;;280.40;;
21213;SDS011;10764;50.850;2.904;2022-09-09T11:46:01;303.15;;;274.73;;
21213;SDS011;10764;50.850;2.904;2022-09-09T11:48:36;299.65;;;271.63;;
21213;SDS011;10764;50.850;2.904;2022-09-09T11:51:12;294.23;;;266.73;;
21213;SDS011;10764;50.850;2.904;2022-09-09T11:53:53;308.88;;;279.45;;
21213;SDS011;10764;50.850;2.904;2022-09-09T11:59:04;292.23;;;264.92;;
21213;SDS011;10764;50.850;2.904;2022-09-09T12:01:45;282.88;;;256.77;;
21213;SDS011;10764;50.850;2.904;2022-09-09T12:04:26;297.95;;;270.10;;
21213;SDS011;10764;50.850;2.904;2022-09-09T12:09:33;309.45;;;279.95;;
21213;SDS011;10764;50.850;2.904;2022-09-09T12:12:07;325.08;;;293.95;;
21213;SDS011;10764;50.850;2.904;2022-09-09T12:19:42;269.50;;;244.80;;
21213;SDS011;10764;50.850;2.904;2022-09-09T12:29:53;288.00;;;261.23;;
21213;SDS011;10764;50.850;2.904;2022-09-09T12:32:25;306.42;;;277.02;;
21213;SDS011;10764;50.850;2.904;2022-09-09T12:34:54;282.20;;;256.02;;
21213;SDS011;10764;50.850;2.904;2022-09-09T12:37:32;280.58;;;254.57;;
21213;SDS011;10764;50.850;2.904;2022-09-09T12:40:15;296.38;;;268.65;;
21213;SDS011;10764;50.850;2.904;2022-09-09T12:42:49;288.20;;;261.42;;
21213;SDS011;10764;50.850;2.904;2022-09-09T12:45:17;277.42;;;251.80;;
21213;SDS011;10764;50.850;2.904;2022-09-09T12:47:49;294.23;;;266.52;;
21213;SDS011;10764;50.850;2.904;2022-09-09T12:50:22;276.02;;;250.32;;
21213;SDS011;10764;50.850;2.904;2022-09-09T12:52:51;273.43;;;248.23;;
21213;SDS011;10764;50.850;2.904;2022-09-09T12:55:20;249.70;;;227.15;;
21213;SDS011;10764;50.850;2.904;2022-09-09T12:57:51;274.33;;;248.95;;
21213;SDS011;10764;50.850;2.904;2022-09-09T13:00:21;265.58;;;241.23;;
21213;SDS011;10764;50.850;2.904;2022-09-09T13:02:56;276.40;;;250.63;;
21213;SDS011;10764;50.850;2.904;2022-09-09T13:05:25;280.83;;;254.82;;
21213;SDS011;10764;50.850;2.904;2022-09-09T13:08:03;276.15;;;250.65;;
21213;SDS011;10764;50.850;2.904;2022-09-09T13:10:31;266.07;;;241.57;;
21213;SDS011;10764;50.850;2.904;2022-09-09T13:13:15;253.32;;;230.30;;
21213;SDS011;10764;50.850;2.904;2022-09-09T13:15:53;270.50;;;244.15;;
21213;SDS011;10764;50.850;2.904;2022-09-09T13:18:24;264.60;;;240.35;;
21213;SDS011;10764;50.850;2.904;2022-09-09T13:21:02;266.77;;;242.32;;
21213;SDS011;10764;50.850;2.904;2022-09-09T13:23:35;286.00;;;259.17;;
21213;SDS011;10764;50.850;2.904;2022-09-09T13:26:05;270.67;;;245.75;;
21213;SDS011;10764;50.850;2.904;2022-09-09T13:28:47;275.92;;;250.38;;
21213;SDS011;10764;50.850;2.904;2022-09-09T13:31:22;284.48;;;258.02;;
21213;SDS011;10764;50.850;2.904;2022-09-09T13:33:50;305.67;;;276.87;;
21213;SDS011;10764;50.850;2.904;2022-09-09T13:36:27;398.02;;;359.63;;
21213;SDS011;10764;50.850;2.904;2022-09-09T13:38:56;328.85;;;297.55;;
21213;SDS011;10764;50.850;2.904;2022-09-09T13:41:29;333.13;;;301.33;;
21213;SDS011;10764;50.850;2.904;2022-09-09T13:43:57;315.92;;;286.00;;
21213;SDS011;10764;50.850;2.904;2022-09-09T13:46:36;299.00;;;271.13;;
21213;SDS011;10764;50.850;2.904;2022-09-09T13:51:37;286.60;;;260.02;;
21213;SDS011;10764;50.850;2.904;2022-09-09T13:54:06;281.42;;;255.32;;
21213;SDS011;10764;50.850;2.904;2022-09-09T13:56:33;278.70;;;252.88;;
21213;SDS011;10764;50.850;2.904;2022-09-09T13:59:02;268.33;;;243.73;;
21213;SDS011;10764;50.850;2.904;2022-09-09T14:01:29;278.95;;;253.00;;
21213;SDS011;10764;50.850;2.904;2022-09-09T14:03:57;273.55;;;248.15;;
21213;SDS011;10764;50.850;2.904;2022-09-09T14:06:26;271.23;;;246.32;;
21213;SDS011;10764;50.850;2.904;2022-09-09T14:08:53;284.58;;;258.23;;
21213;SDS011;10764;50.850;2.904;2022-09-09T14:11:21;271.73;;;246.77;;
21213;SDS011;10764;50.850;2.904;2022-09-09T14:13:49;268.10;;;243.60;;
21213;SDS011;10764;50.850;2.904;2022-09-09T14:16:17;295.58;;;268.00;;
21213;SDS011;10764;50.850;2.904;2022-09-09T14:18:45;277.23;;;251.65;;
21213;SDS011;10764;50.850;2.904;2022-09-09T14:21:12;283.00;;;256.83;;
21213;SDS011;10764;50.850;2.904;2022-09-09T14:23:41;298.87;;;271.00;;
21213;SDS011;10764;50.850;2.904;2022-09-09T14:26:09;277.95;;;252.43;;
21213;SDS011;10764;50.850;2.904;2022-09-09T14:28:36;289.45;;;262.70;;
21213;SDS011;10764;50.850;2.904;2022-09-09T14:31:20;312.00;;;282.50;;
21213;SDS011;10764;50.850;2.904;2022-09-09T14:33:48;322.38;;;291.90;;
21213;SDS011;10764;50.850;2.904;2022-09-09T14:36:15;299.60;;;271.60;;
21213;SDS011;10764;50.850;2.904;2022-09-09T14:38:42;169.85;;;155.80;;
21213;SDS011;10764;50.850;2.904;2022-09-09T14:41:13;147.25;;;135.55;;
21213;SDS011;10764;50.850;2.904;2022-09-09T14:43:45;162.27;;;149.02;;
21213;SDS011;10764;50.850;2.904;2022-09-09T14:46:14;157.27;;;144.60;;
21213;SDS011;10764;50.850;2.904;2022-09-09T14:48:42;171.33;;;156.93;;
21213;SDS011;10764;50.850;2.904;2022-09-09T14:51:12;166.35;;;152.65;;
21213;SDS011;10764;50.850;2.904;2022-09-09T14:53:40;167.98;;;154.15;;
21213;SDS011;10764;50.850;2.904;2022-09-09T14:56:08;188.75;;;172.55;;
21213;SDS011;10764;50.850;2.904;2022-09-09T14:58:37;169.70;;;155.55;;
21213;SDS011;10764;50.850;2.904;2022-09-09T15:01:05;197.35;;;180.30;;
21213;SDS011;10764;50.850;2.904;2022-09-09T15:03:33;183.67;;;168.00;;
21213;SDS011;10764;50.850;2.904;2022-09-09T15:06:11;182.43;;;166.77;;
21213;SDS011;10764;50.850;2.904;2022-09-09T15:08:43;178.02;;;162.93;;
21213;SDS011;10764;50.850;2.904;2022-09-09T15:11:11;176.88;;;161.98;;
21213;SDS011;10764;50.850;2.904;2022-09-09T15:13:39;160.38;;;147.23;;
21213;SDS011;10764;50.850;2.904;2022-09-09T15:16:07;155.55;;;142.95;;
21213;SDS011;10764;50.850;2.904;2022-09-09T15:18:35;174.65;;;159.95;;
21213;SDS011;10764;50.850;2.904;2022-09-09T15:21:03;140.50;;;129.50;;
21213;SDS011;10764;50.850;2.904;2022-09-09T15:23:32;152.37;;;140.07;;
21213;SDS011;10764;50.850;2.904;2022-09-09T15:26:00;135.02;;;124.55;;
21213;SDS011;10764;50.850;2.904;2022-09-09T15:28:27;144.18;;;132.50;;
21213;SDS011;10764;50.850;2.904;2022-09-09T15:30:55;143.57;;;131.98;;
21213;SDS011;10764;50.850;2.904;2022-09-09T15:33:23;158.18;;;145.30;;
21213;SDS011;10764;50.850;2.904;2022-09-09T15:35:50;154.35;;;141.93;;
21213;SDS011;10764;50.850;2.904;2022-09-09T15:38:18;132.18;;;122.07;;
21213;SDS011;10764;50.850;2.904;2022-09-09T15:40:52;154.88;;;142.27;;
21213;SDS011;10764;50.850;2.904;2022-09-09T15:43:21;148.45;;;136.55;;
21213;SDS011;10764;50.850;2.904;2022-09-09T15:45:49;146.18;;;134.32;;
21213;SDS011;10764;50.850;2.904;2022-09-09T15:48:21;158.80;;;145.80;;
21213;SDS011;10764;50.850;2.904;2022-09-09T15:51:02;143.43;;;132.10;;
21213;SDS011;10764;50.850;2.904;2022-09-09T15:53:45;154.32;;;141.82;;
21213;SDS011;10764;50.850;2.904;2022-09-09T15:56:13;159.23;;;146.18;;
21213;SDS011;10764;50.850;2.904;2022-09-09T15:58:40;151.77;;;139.37;;
21213;SDS011;10764;50.850;2.904;2022-09-09T16:01:09;150.77;;;138.65;;
21213;SDS011;10764;50.850;2.904;2022-09-09T16:03:41;152.32;;;140.02;;
21213;SDS011;10764;50.850;2.904;2022-09-09T16:06:11;147.45;;;135.60;;
21213;SDS011;10764;50.850;2.904;2022-09-09T16:08:39;157.90;;;145.00;;
21213;SDS011;10764;50.850;2.904;2022-09-09T16:11:11;153.60;;;141.15;;
21213;SDS011;10764;50.850;2.904;2022-09-09T16:13:41;154.37;;;141.60;;
21213;SDS011;10764;50.850;2.904;2022-09-09T16:16:14;149.77;;;137.60;;
21213;SDS011;10764;50.850;2.904;2022-09-09T16:18:43;153.65;;;141.20;;
21213;SDS011;10764;50.850;2.904;2022-09-09T16:21:22;143.68;;;132.30;;
21213;SDS011;10764;50.850;2.904;2022-09-09T16:23:56;149.40;;;137.30;;
21213;SDS011;10764;50.850;2.904;2022-09-09T16:26:26;155.13;;;142.48;;
21213;SDS011;10764;50.850;2.904;2022-09-09T16:28:53;142.45;;;131.10;;
21213;SDS011;10764;50.850;2.904;2022-09-09T16:31:22;134.90;;;124.45;;
21213;SDS011;10764;50.850;2.904;2022-09-09T16:33:50;151.48;;;139.25;;
21213;SDS011;10764;50.850;2.904;2022-09-09T16:36:19;146.85;;;134.98;;
21213;SDS011;10764;50.850;2.904;2022-09-09T16:38:54;144.85;;;133.25;;
21213;SDS011;10764;50.850;2.904;2022-09-09T16:41:24;143.85;;;132.15;;
21213;SDS011;10764;50.850;2.904;2022-09-09T16:43:58;132.38;;;121.70;;
21213;SDS011;10764;50.850;2.904;2022-09-09T16:46:29;134.00;;;123.32;;
21213;SDS011;10764;50.850;2.904;2022-09-09T16:48:58;108.22;;;100.10;;
21213;SDS011;10764;50.850;2.904;2022-09-09T16:51:27;133.73;;;123.13;;